Kvb Contargo III & X — PD5101 — position and weather

sailwx.info

Track history (hours):
 
Tides and Currents Weather Stations Pressure Air Temp Water Temp Dewpoint Dewpoint Depression Visibility Wind Speed Wind Dir Waves Ship Positions

Kvb Contargo III & X

Last reported at 2014-Jul-31 14:33 UTC. Time now 2014-Jul-31 15:34 UTC.
Position N 47°35' E 007°36'.

Length 182 m; draft 1 m.

Type: Tanker. MMSI: 244670090.

Date/timePositionNaut miles runAvg speedWind from/ knotsBaromVisibWave heightAir tempDewpointWater temp
2014-Jul-31 14:33N 47°35' E 007°36'0 0.0
2014-Jul-31 13:33N 47°35' E 007°36'0 0.0
2014-Jul-31 12:33N 47°35' E 007°36'0 0.0
2014-Jul-31 11:33N 47°35' E 007°36'0 0.0
2014-Jul-31 10:33N 47°35' E 007°36'0 0.0
2014-Jul-31 09:33N 47°35' E 007°36'0 0.0
2014-Jul-31 08:33N 47°35' E 007°36'0 0.1
2014-Jul-31 07:33N 47°35' E 007°36'0 0.0
2014-Jul-31 06:33N 47°35' E 007°36'0 0.0
2014-Jul-31 05:33N 47°35' E 007°36'0 0.0
2014-Jul-31 04:33N 47°35' E 007°36'0 0.0
2014-Jul-31 03:33N 47°35' E 007°36'0 0.0
2014-Jul-31 02:33N 47°35' E 007°36'0 0.0
2014-Jul-31 01:33N 47°35' E 007°36'0 0.0
2014-Jul-31 00:33N 47°35' E 007°36'0 0.1
2014-Jul-30 23:33N 47°35' E 007°36'0 0.0
2014-Jul-30 22:33N 47°35' E 007°36'0 0.0
2014-Jul-30 21:33N 47°35' E 007°36'0 0.0
2014-Jul-30 20:33N 47°35' E 007°36'0 0.0
2014-Jul-30 19:33N 47°35' E 007°36'0 0.0
2014-Jul-30 18:33N 47°35' E 007°36'0 0.0
2014-Jul-30 17:33N 47°35' E 007°36'0 0.0
2014-Jul-30 16:33N 47°35' E 007°36'0 0.0
2014-Jul-30 15:33N 47°35' E 007°36'0 0.2
2014-Jul-30 14:33N 47°35' E 007°36'0 0.0
2014-Jul-30 13:33N 47°35' E 007°36'0 0.0
2014-Jul-30 12:33N 47°35' E 007°36'0 0.4
2014-Jul-30 11:33N 47°35' E 007°35'1 1.4
2014-Jul-30 10:33N 47°36' E 007°35'0 0.0
2014-Jul-30 09:33N 47°36' E 007°35'4 3.8
2014-Jul-30 08:33N 47°39' E 007°32'63 1.8
2014-Jul-28 22:07N 48°40' E 007°54'2 2.7
2014-Jul-28 21:33N 48°42' E 007°55'6 5.5
2014-Jul-28 20:32N 48°46' E 008°01'9 4.4
2014-Jul-28 18:24N 48°54' E 008°08'4 4.9
2014-Jul-28 17:29N 48°58' E 008°12'5 5.2
2014-Jul-28 16:33N 49°01' E 008°18'5 5.2
2014-Jul-28 15:34N 49°05' E 008°21'5 5.2
2014-Jul-28 14:33N 49°10' E 008°22'5 5.3
2014-Jul-28 13:33N 49°15' E 008°25'4 4.1
2014-Jul-28 12:33N 49°19' E 008°27'110 4.8
2014-Jul-27 13:20N 50°54' E 006°59'62 4.4
2014-Jul-26 23:24N 51°49' E 006°16'17 6.1
2014-Jul-26 20:33N 51°53' E 005°48'8 7.8
2014-Jul-26 19:33N 51°54' E 005°35'7 7.1
2014-Jul-26 18:33N 51°51' E 005°25'6 6.0
2014-Jul-26 17:33N 51°49' E 005°16'8 7.6
2014-Jul-26 16:33N 51°49' E 005°03'9 9.3
2014-Jul-26 15:33N 51°49' E 004°48'8 8.2
2014-Jul-26 14:33N 51°48' E 004°35'1110.8
2014-Jul-26 13:33N 51°52' E 004°19'10 9.9
2014-Jul-26 12:33N 51°57' E 004°05'1 0.7
2014-Jul-26 11:34N 51°58' E 004°04'0 0.0
2014-Jul-26 10:33N 51°58' E 004°04'0 0.0
2014-Jul-26 09:33N 51°58' E 004°04'0 0.0
2014-Jul-26 08:33N 51°58' E 004°04'0 0.0
2014-Jul-26 07:33N 51°58' E 004°04'0 0.0
2014-Jul-26 06:33N 51°58' E 004°04'1 1.0
2014-Jul-26 05:33N 51°57' E 004°03'1 1.3
2014-Jul-26 04:33N 51°58' E 004°02'0 0.0
2014-Jul-26 03:33N 51°58' E 004°02'0 0.0
2014-Jul-26 02:33N 51°58' E 004°02'0 0.0
2014-Jul-26 01:34N 51°58' E 004°02'0 0.0
2014-Jul-26 00:30N 51°58' E 004°02'0 0.3
2014-Jul-25 23:33N 51°58' E 004°03'2 2.2
2014-Jul-25 22:33N 51°56' E 004°04'1 1.4
2014-Jul-25 21:32N 51°56' E 004°02'0 0.0
2014-Jul-25 20:33N 51°56' E 004°02'0 0.0
2014-Jul-25 19:33N 51°56' E 004°02'0 0.0
2014-Jul-25 18:34N 51°56' E 004°02'0 0.0
2014-Jul-25 17:34N 51°56' E 004°02'0 0.0
2014-Jul-25 16:33N 51°56' E 004°02'0 0.0
2014-Jul-25 15:33N 51°56' E 004°02'0 0.0
2014-Jul-25 14:34N 51°56' E 004°02'0 0.0
2014-Jul-25 13:34N 51°56' E 004°02'0 0.0
2014-Jul-25 12:33N 51°56' E 004°02'0 0.0
2014-Jul-25 11:33N 51°56' E 004°02'0 0.0
2014-Jul-25 10:34N 51°56' E 004°02'0 0.0
2014-Jul-25 09:33N 51°56' E 004°02'0 0.0
2014-Jul-25 08:33N 51°56' E 004°02'0 0.0
2014-Jul-25 07:33N 51°56' E 004°02'0 0.0
2014-Jul-25 06:33N 51°56' E 004°02'0 0.0
2014-Jul-25 05:34N 51°56' E 004°02'0 0.0
2014-Jul-25 04:33N 51°56' E 004°02'0 0.0
2014-Jul-25 03:34N 51°56' E 004°02'0 0.0
2014-Jul-25 02:33N 51°56' E 004°02'0 0.0
2014-Jul-25 01:33N 51°56' E 004°02'0 0.0
2014-Jul-25 00:33N 51°56' E 004°02'0 0.0
2014-Jul-24 23:34N 51°56' E 004°02'0 0.0
2014-Jul-24 22:34N 51°56' E 004°02'0 0.0
2014-Jul-24 21:34N 51°56' E 004°02'0 0.0
2014-Jul-24 20:34N 51°56' E 004°02'0 0.0
2014-Jul-24 19:34N 51°56' E 004°02'0 0.0
2014-Jul-24 18:33N 51°56' E 004°02'0 0.0
2014-Jul-24 17:34N 51°56' E 004°02'0 0.0
2014-Jul-24 16:33N 51°56' E 004°02'0 0.0
2014-Jul-24 15:33N 51°56' E 004°02'0 0.0
2014-Jul-24 14:33N 51°56' E 004°02'1 1.0
2014-Jul-24 13:33N 51°57' E 004°02'1 1.1
2014-Jul-24 12:33N 51°58' E 004°03'1 0.6
2014-Jul-24 11:32N 51°58' E 004°04'7 7.5
2014-Jul-24 10:33N 51°53' E 004°14'4 3.6
2014-Jul-24 09:33N 51°53' E 004°20'4 3.6
2014-Jul-24 08:34N 51°53' E 004°25'0 0.1
2014-Jul-24 07:33N 51°53' E 004°26'0 0.0
2014-Jul-24 06:32N 51°53' E 004°26'0 0.0
2014-Jul-24 05:33N 51°53' E 004°26'1 0.9
2014-Jul-24 04:34N 51°53' E 004°24'0 0.0
2014-Jul-24 03:34N 51°53' E 004°24'0 0.0
2014-Jul-24 02:33N 51°53' E 004°24'0 0.0
2014-Jul-24 01:33N 51°53' E 004°24'0 0.0
2014-Jul-24 00:33N 51°53' E 004°24'0 0.0
2014-Jul-23 23:34N 51°53' E 004°24'0 0.0
2014-Jul-23 22:33N 51°53' E 004°24'0 0.0
2014-Jul-23 21:34N 51°53' E 004°24'1 1.4
2014-Jul-23 20:33N 51°54' E 004°26'1 0.5
2014-Jul-23 19:06N 51°53' E 004°26'1 0.4
2014-Jul-23 17:33N 51°54' E 004°26'2 1.7
2014-Jul-23 16:33N 51°53' E 004°24'0 0.4
2014-Jul-23 15:33N 51°53' E 004°25'1 1.1
2014-Jul-23 14:32N 51°54' E 004°24'5 5.3
2014-Jul-23 13:34N 51°54' E 004°16'7 7.4
2014-Jul-23 12:33N 51°58' E 004°05'1 0.9
2014-Jul-23 11:33N 51°57' E 004°04'0 0.0
2014-Jul-23 10:33N 51°57' E 004°04'0 0.0
2014-Jul-23 09:33N 51°57' E 004°04'0 0.0
2014-Jul-23 08:33N 51°57' E 004°04'0 0.0
2014-Jul-23 07:33N 51°57' E 004°04'0 0.0
2014-Jul-23 06:33N 51°57' E 004°04'0 0.1
2014-Jul-23 05:33N 51°57' E 004°05'2 1.8
2014-Jul-23 04:33N 51°56' E 004°02'0 0.0
2014-Jul-23 03:33N 51°56' E 004°02'0 0.0
2014-Jul-23 02:33N 51°56' E 004°02'0 0.0
2014-Jul-23 01:33N 51°56' E 004°02'0 0.0
2014-Jul-23 00:33N 51°56' E 004°02'0 0.0
2014-Jul-22 23:33N 51°56' E 004°02'0 0.0
2014-Jul-22 22:33N 51°56' E 004°02'0 0.0
2014-Jul-22 21:34N 51°56' E 004°02'0 0.0
2014-Jul-22 20:34N 51°56' E 004°02'0 0.0
2014-Jul-22 19:33N 51°56' E 004°02'0 0.0
2014-Jul-22 18:33N 51°56' E 004°02'0 0.0
2014-Jul-22 17:33N 51°56' E 004°02'0 0.0
2014-Jul-22 16:33N 51°56' E 004°02'0 0.0
2014-Jul-22 15:33N 51°56' E 004°02'0 0.0
2014-Jul-22 14:33N 51°56' E 004°02'0 0.0
2014-Jul-22 13:33N 51°56' E 004°02'0 0.0
2014-Jul-22 12:33N 51°56' E 004°02'0 0.0
2014-Jul-22 11:33N 51°56' E 004°02'0 0.0
2014-Jul-22 10:33N 51°56' E 004°02'0 0.0
2014-Jul-22 09:34N 51°56' E 004°02'0 0.0
2014-Jul-22 08:34N 51°56' E 004°02'0 0.0
2014-Jul-22 07:29N 51°56' E 004°02'0 0.0
2014-Jul-22 06:33N 51°56' E 004°02'1 0.6
2014-Jul-22 05:33N 51°56' E 004°02'0 0.0
2014-Jul-22 04:33N 51°56' E 004°02'0 0.0
2014-Jul-22 03:33N 51°56' E 004°02'0 0.0
2014-Jul-22 02:33N 51°56' E 004°02'0 0.0
2014-Jul-22 01:34N 51°56' E 004°02'0 0.0
2014-Jul-22 00:32N 51°56' E 004°02'0 0.0
2014-Jul-21 23:33N 51°56' E 004°02'0 0.0
2014-Jul-21 22:33N 51°56' E 004°02'0 0.0
2014-Jul-21 21:33N 51°56' E 004°02'5 5.4
2014-Jul-21 20:33N 51°55' E 004°11'2 6.6
2014-Jul-21 20:18N 51°54' E 004°13'1 1.8
2014-Jul-21 19:33N 51°53' E 004°14'0 0.0
2014-Jul-21 18:33N 51°53' E 004°14'0 0.0
2014-Jul-21 17:34N 51°53' E 004°14'0 0.1
2014-Jul-21 16:33N 51°53' E 004°14'4 4.4
2014-Jul-21 15:33N 51°56' E 004°09'0 0.0
2014-Jul-21 14:33N 51°56' E 004°09'  
Track history (hours):
 
Tides and Currents Weather Stations Pressure Air Temp Water Temp Dewpoint Dewpoint Depression Visibility Wind Speed Wind Dir Waves Ship Positions

Kvb Contargo III & X

Last reported at 2014-Jul-31 14:33 UTC. Time now 2014-Jul-31 15:34 UTC.
Position N 47°35' E 007°36'.

Length 182 m; draft 1 m.

Type: Tanker. MMSI: 244670090.

Date/timePositionNaut miles runAvg speedWind from/ knotsBaromVisibWave heightAir tempDewpointWater temp
2014-Jul-31 14:33N 47°35' E 007°36'0 0.0
2014-Jul-31 13:33N 47°35' E 007°36'0 0.0
2014-Jul-31 12:33N 47°35' E 007°36'0 0.0
2014-Jul-31 11:33N 47°35' E 007°36'0 0.0
2014-Jul-31 10:33N 47°35' E 007°36'0 0.0
2014-Jul-31 09:33N 47°35' E 007°36'0 0.0
2014-Jul-31 08:33N 47°35' E 007°36'0 0.1
2014-Jul-31 07:33N 47°35' E 007°36'0 0.0
2014-Jul-31 06:33N 47°35' E 007°36'0 0.0
2014-Jul-31 05:33N 47°35' E 007°36'0 0.0
2014-Jul-31 04:33N 47°35' E 007°36'0 0.0
2014-Jul-31 03:33N 47°35' E 007°36'0 0.0
2014-Jul-31 02:33N 47°35' E 007°36'0 0.0
2014-Jul-31 01:33N 47°35' E 007°36'0 0.0
2014-Jul-31 00:33N 47°35' E 007°36'0 0.1
2014-Jul-30 23:33N 47°35' E 007°36'0 0.0
2014-Jul-30 22:33N 47°35' E 007°36'0 0.0
2014-Jul-30 21:33N 47°35' E 007°36'0 0.0
2014-Jul-30 20:33N 47°35' E 007°36'0 0.0
2014-Jul-30 19:33N 47°35' E 007°36'0 0.0
2014-Jul-30 18:33N 47°35' E 007°36'0 0.0
2014-Jul-30 17:33N 47°35' E 007°36'0 0.0
2014-Jul-30 16:33N 47°35' E 007°36'0 0.0
2014-Jul-30 15:33N 47°35' E 007°36'0 0.2
2014-Jul-30 14:33N 47°35' E 007°36'0 0.0
2014-Jul-30 13:33N 47°35' E 007°36'0 0.0
2014-Jul-30 12:33N 47°35' E 007°36'0 0.4
2014-Jul-30 11:33N 47°35' E 007°35'1 1.4
2014-Jul-30 10:33N 47°36' E 007°35'0 0.0
2014-Jul-30 09:33N 47°36' E 007°35'4 3.8
2014-Jul-30 08:33N 47°39' E 007°32'63 1.8
2014-Jul-28 22:07N 48°40' E 007°54'2 2.7
2014-Jul-28 21:33N 48°42' E 007°55'6 5.5
2014-Jul-28 20:32N 48°46' E 008°01'9 4.4
2014-Jul-28 18:24N 48°54' E 008°08'4 4.9
2014-Jul-28 17:29N 48°58' E 008°12'5 5.2
2014-Jul-28 16:33N 49°01' E 008°18'5 5.2
2014-Jul-28 15:34N 49°05' E 008°21'5 5.2
2014-Jul-28 14:33N 49°10' E 008°22'5 5.3
2014-Jul-28 13:33N 49°15' E 008°25'4 4.1
2014-Jul-28 12:33N 49°19' E 008°27'110 4.8
2014-Jul-27 13:20N 50°54' E 006°59'62 4.4
2014-Jul-26 23:24N 51°49' E 006°16'17 6.1
2014-Jul-26 20:33N 51°53' E 005°48'8 7.8
2014-Jul-26 19:33N 51°54' E 005°35'7 7.1
2014-Jul-26 18:33N 51°51' E 005°25'6 6.0
2014-Jul-26 17:33N 51°49' E 005°16'8 7.6
2014-Jul-26 16:33N 51°49' E 005°03'9 9.3
2014-Jul-26 15:33N 51°49' E 004°48'8 8.2
2014-Jul-26 14:33N 51°48' E 004°35'1110.8
2014-Jul-26 13:33N 51°52' E 004°19'10 9.9
2014-Jul-26 12:33N 51°57' E 004°05'1 0.7
2014-Jul-26 11:34N 51°58' E 004°04'0 0.0
2014-Jul-26 10:33N 51°58' E 004°04'0 0.0
2014-Jul-26 09:33N 51°58' E 004°04'0 0.0
2014-Jul-26 08:33N 51°58' E 004°04'0 0.0
2014-Jul-26 07:33N 51°58' E 004°04'0 0.0
2014-Jul-26 06:33N 51°58' E 004°04'1 1.0
2014-Jul-26 05:33N 51°57' E 004°03'1 1.3
2014-Jul-26 04:33N 51°58' E 004°02'0 0.0
2014-Jul-26 03:33N 51°58' E 004°02'0 0.0
2014-Jul-26 02:33N 51°58' E 004°02'0 0.0
2014-Jul-26 01:34N 51°58' E 004°02'0 0.0
2014-Jul-26 00:30N 51°58' E 004°02'0 0.3
2014-Jul-25 23:33N 51°58' E 004°03'2 2.2
2014-Jul-25 22:33N 51°56' E 004°04'1 1.4
2014-Jul-25 21:32N 51°56' E 004°02'0 0.0
2014-Jul-25 20:33N 51°56' E 004°02'0 0.0
2014-Jul-25 19:33N 51°56' E 004°02'0 0.0
2014-Jul-25 18:34N 51°56' E 004°02'0 0.0
2014-Jul-25 17:34N 51°56' E 004°02'0 0.0
2014-Jul-25 16:33N 51°56' E 004°02'0 0.0
2014-Jul-25 15:33N 51°56' E 004°02'0 0.0
2014-Jul-25 14:34N 51°56' E 004°02'0 0.0
2014-Jul-25 13:34N 51°56' E 004°02'0 0.0
2014-Jul-25 12:33N 51°56' E 004°02'0 0.0
2014-Jul-25 11:33N 51°56' E 004°02'0 0.0
2014-Jul-25 10:34N 51°56' E 004°02'0 0.0
2014-Jul-25 09:33N 51°56' E 004°02'0 0.0
2014-Jul-25 08:33N 51°56' E 004°02'0 0.0
2014-Jul-25 07:33N 51°56' E 004°02'0 0.0
2014-Jul-25 06:33N 51°56' E 004°02'0 0.0
2014-Jul-25 05:34N 51°56' E 004°02'0 0.0
2014-Jul-25 04:33N 51°56' E 004°02'0 0.0
2014-Jul-25 03:34N 51°56' E 004°02'0 0.0
2014-Jul-25 02:33N 51°56' E 004°02'0 0.0
2014-Jul-25 01:33N 51°56' E 004°02'0 0.0
2014-Jul-25 00:33N 51°56' E 004°02'0 0.0
2014-Jul-24 23:34N 51°56' E 004°02'0 0.0
2014-Jul-24 22:34N 51°56' E 004°02'0 0.0
2014-Jul-24 21:34N 51°56' E 004°02'0 0.0
2014-Jul-24 20:34N 51°56' E 004°02'0 0.0
2014-Jul-24 19:34N 51°56' E 004°02'0 0.0
2014-Jul-24 18:33N 51°56' E 004°02'0 0.0
2014-Jul-24 17:34N 51°56' E 004°02'0 0.0
2014-Jul-24 16:33N 51°56' E 004°02'0 0.0
2014-Jul-24 15:33N 51°56' E 004°02'0 0.0
2014-Jul-24 14:33N 51°56' E 004°02'1 1.0
2014-Jul-24 13:33N 51°57' E 004°02'1 1.1
2014-Jul-24 12:33N 51°58' E 004°03'1 0.6
2014-Jul-24 11:32N 51°58' E 004°04'7 7.5
2014-Jul-24 10:33N 51°53' E 004°14'4 3.6
2014-Jul-24 09:33N 51°53' E 004°20'4 3.6
2014-Jul-24 08:34N 51°53' E 004°25'0 0.1
2014-Jul-24 07:33N 51°53' E 004°26'0 0.0
2014-Jul-24 06:32N 51°53' E 004°26'0 0.0
2014-Jul-24 05:33N 51°53' E 004°26'1 0.9
2014-Jul-24 04:34N 51°53' E 004°24'0 0.0
2014-Jul-24 03:34N 51°53' E 004°24'0 0.0
2014-Jul-24 02:33N 51°53' E 004°24'0 0.0
2014-Jul-24 01:33N 51°53' E 004°24'0 0.0
2014-Jul-24 00:33N 51°53' E 004°24'0 0.0
2014-Jul-23 23:34N 51°53' E 004°24'0 0.0
2014-Jul-23 22:33N 51°53' E 004°24'0 0.0
2014-Jul-23 21:34N 51°53' E 004°24'1 1.4
2014-Jul-23 20:33N 51°54' E 004°26'1 0.5
2014-Jul-23 19:06N 51°53' E 004°26'1 0.4
2014-Jul-23 17:33N 51°54' E 004°26'2 1.7
2014-Jul-23 16:33N 51°53' E 004°24'0 0.4
2014-Jul-23 15:33N 51°53' E 004°25'1 1.1
2014-Jul-23 14:32N 51°54' E 004°24'5 5.3
2014-Jul-23 13:34N 51°54' E 004°16'7 7.4
2014-Jul-23 12:33N 51°58' E 004°05'1 0.9
2014-Jul-23 11:33N 51°57' E 004°04'0 0.0
2014-Jul-23 10:33N 51°57' E 004°04'0 0.0
2014-Jul-23 09:33N 51°57' E 004°04'0 0.0
2014-Jul-23 08:33N 51°57' E 004°04'0 0.0
2014-Jul-23 07:33N 51°57' E 004°04'0 0.0
2014-Jul-23 06:33N 51°57' E 004°04'0 0.1
2014-Jul-23 05:33N 51°57' E 004°05'2 1.8
2014-Jul-23 04:33N 51°56' E 004°02'0 0.0
2014-Jul-23 03:33N 51°56' E 004°02'0 0.0
2014-Jul-23 02:33N 51°56' E 004°02'0 0.0
2014-Jul-23 01:33N 51°56' E 004°02'0 0.0
2014-Jul-23 00:33N 51°56' E 004°02'0 0.0
2014-Jul-22 23:33N 51°56' E 004°02'0 0.0
2014-Jul-22 22:33N 51°56' E 004°02'0 0.0
2014-Jul-22 21:34N 51°56' E 004°02'0 0.0
2014-Jul-22 20:34N 51°56' E 004°02'0 0.0
2014-Jul-22 19:33N 51°56' E 004°02'0 0.0
2014-Jul-22 18:33N 51°56' E 004°02'0 0.0
2014-Jul-22 17:33N 51°56' E 004°02'0 0.0
2014-Jul-22 16:33N 51°56' E 004°02'0 0.0
2014-Jul-22 15:33N 51°56' E 004°02'0 0.0
2014-Jul-22 14:33N 51°56' E 004°02'0 0.0
2014-Jul-22 13:33N 51°56' E 004°02'0 0.0
2014-Jul-22 12:33N 51°56' E 004°02'0 0.0
2014-Jul-22 11:33N 51°56' E 004°02'0 0.0
2014-Jul-22 10:33N 51°56' E 004°02'0 0.0
2014-Jul-22 09:34N 51°56' E 004°02'0 0.0
2014-Jul-22 08:34N 51°56' E 004°02'0 0.0
2014-Jul-22 07:29N 51°56' E 004°02'0 0.0
2014-Jul-22 06:33N 51°56' E 004°02'1 0.6
2014-Jul-22 05:33N 51°56' E 004°02'0 0.0
2014-Jul-22 04:33N 51°56' E 004°02'0 0.0
2014-Jul-22 03:33N 51°56' E 004°02'0 0.0
2014-Jul-22 02:33N 51°56' E 004°02'0 0.0
2014-Jul-22 01:34N 51°56' E 004°02'0 0.0
2014-Jul-22 00:32N 51°56' E 004°02'0 0.0
2014-Jul-21 23:33N 51°56' E 004°02'0 0.0
2014-Jul-21 22:33N 51°56' E 004°02'0 0.0
2014-Jul-21 21:33N 51°56' E 004°02'5 5.4
2014-Jul-21 20:33N 51°55' E 004°11'2 6.6
2014-Jul-21 20:18N 51°54' E 004°13'1 1.8
2014-Jul-21 19:33N 51°53' E 004°14'0 0.0
2014-Jul-21 18:33N 51°53' E 004°14'0 0.0
2014-Jul-21 17:34N 51°53' E 004°14'0 0.1
2014-Jul-21 16:33N 51°53' E 004°14'4 4.4
2014-Jul-21 15:33N 51°56' E 004°09'0 0.0
2014-Jul-21 14:33N 51°56' E 004°09'  

Dump ship's entire track history